CST,Max TemperatureF,Mean TemperatureF,Min TemperatureF,Max Dew PointF,MeanDew PointF,Min DewpointF,Max Humidity, Mean Humidity, Min Humidity, Max Sea Level PressureIn, Mean Sea Level PressureIn, Min Sea Level PressureIn, Max VisibilityMiles, Mean VisibilityMiles, Min VisibilityMiles, Max Wind SpeedMPH, Mean Wind SpeedMPH, Max Gust SpeedMPH,PrecipitationIn, CloudCover, Events, WindDirDegrees
2012-2-1,62,43,24,23,18,14,74,47,18,30.14,30.10,30.06,10,10,9,18,7,22,0.00,1,,275
2012-2-2,57,40,24,28,22,14,80,58,31,30.20,30.16,30.12,10,10,10,10,4,,0.00,0,,101
2012-2-3,46,40,33,39,37,28,100,92,50,30.19,30.16,30.05,10,5,1,34,16,44,0.27,6,Rain,78
2012-2-4,32,29,26,32,30,25,100,96,87,30.40,30.28,30.16,10,3,0,25,18,32,0.00,0,Rain-Snow,4
2012-2-5,32,22,12,27,19,10,100,90,74,30.41,30.38,30.31,10,8,2,13,7,,0.02,0,Snow,295
2012-2-6,35,22,8,28,19,7,100,87,75,30.28,30.20,30.13,9,6,1,9,7,,0.02,1,Snow,240
2012-2-7,32,28,23,30,25,19,100,92,80,30.50,30.38,30.22,10,7,1,30,17,34,0.00,8,Snow,8
2012-2-8,26,22,17,19,17,14,93,81,64,30.51,30.43,30.33,10,10,10,9,6,,0.01,8,,309
2012-2-9,35,30,24,30,26,23,100,91,80,30.30,30.14,30.02,10,7,2,18,7,23,0.02,6,,219
2012-2-10,26,16,5,23,7,-4,86,67,53,30.51,30.30,30.10,10,10,2,29,15,37,0.00,2,Snow,356
2012-2-11,12,2,-7,0,-6,-13,85,67,52,30.75,30.66,30.57,10,10,10,13,8,,0.00,0,,315
2012-2-12,28,12,-5,14,2,-11,85,67,47,30.57,30.33,30.03,10,10,10,20,9,24,0.00,3,,197
2012-2-13,32,24,15,32,26,16,100,96,80,29.95,29.77,29.69,10,4,0,18,11,21,0.00,7,Fog-Snow,186
2012-2-14,39,24,10,32,21,9,100,88,65,29.80,29.77,29.75,10,8,1,12,4,,0.02,1,Snow,236
2012-2-15,37,27,17,34,28,18,100,94,80,30.10,29.91,29.80,10,6,0,18,7,24,0.00,3,Fog-Rain,324
2012-2-16,39,28,17,32,24,16,93,82,65,30.27,30.20,30.10,10,10,9,12,9,,0.00,1,,261
2012-2-17,39,32,24,30,26,23,93,76,61,30.20,30.10,30.02,10,10,8,15,11,,0.00,0,,333
2012-2-18,37,26,15,23,19,14,93,74,45,30.26,30.20,30.12,10,10,9,7,4,,0.00,0,,207
2012-2-19,44,32,21,32,26,19,93,78,61,30.10,29.98,29.86,10,10,8,17,9,21,0.00,1,,163
2012-2-20,42,38,35,43,36,28,100,91,70,29.84,29.68,29.54,10,6,1,22,16,30,0.05,8,Rain,147
2012-2-21,46,39,32,32,30,27,100,76,57,29.87,29.80,29.68,10,10,10,20,13,18,0.00,1,,275
2012-2-22,53,44,35,37,34,28,87,72,51,29.60,29.53,29.41,10,10,7,13,9,16,0.00,3,Rain,287
2012-2-23,42,38,35,37,35,30,100,86,70,29.71,29.43,29.26,10,10,7,37,13,47,0.00,6,Rain,339
2012-2-24,44,36,28,32,25,19,100,76,39,30.21,30.06,29.89,10,10,2,22,15,30,0.00,2,Snow,319
2012-2-25,42,30,17,28,22,14,93,68,49,30.28,30.03,29.62,10,10,10,26,10,33,0.00,2,,141
2012-2-26,53,40,28,28,24,18,80,55,33,30.29,29.94,29.62,10,10,10,20,13,24,0.00,1,,285
2012-2-27,41,28,15,21,16,10,86,59,39,30.50,30.38,30.24,10,10,10,17,8,18,0.00,1,,51
2012-2-28,55,45,35,55,38,21,100,84,52,30.20,29.85,29.42,10,7,1,22,13,29,0.07,8,Rain,155
2012-2-29,46,38,30,30,26,23,87,69,53,29.85,29.68,29.47,10,10,10,37,28,45,0.00,2,,297